sensor_id;sensor_type;location;lat;lon;timestamp;temperature;humidity
38604;DHT22;24924;50.054;8.790;2023-06-10T00:02:09;18.70;99.90
38604;DHT22;24924;50.054;8.790;2023-06-10T00:04:35;18.60;99.90
38604;DHT22;24924;50.054;8.790;2023-06-10T00:07:05;18.50;99.90
38604;DHT22;24924;50.054;8.790;2023-06-10T00:09:38;18.40;99.90
38604;DHT22;24924;50.054;8.790;2023-06-10T00:12:07;18.30;99.90
38604;DHT22;24924;50.054;8.790;2023-06-10T00:14:37;18.30;99.90
38604;DHT22;24924;50.054;8.790;2023-06-10T00:17:04;18.10;99.90
38604;DHT22;24924;50.054;8.790;2023-06-10T00:19:30;18.00;99.90
38604;DHT22;24924;50.054;8.790;2023-06-10T00:21:57;18.00;99.90
38604;DHT22;24924;50.054;8.790;2023-06-10T00:24:23;18.00;99.90
38604;DHT22;24924;50.054;8.790;2023-06-10T00:26:49;18.00;99.90
38604;DHT22;24924;50.054;8.790;2023-06-10T00:29:14;18.00;99.90
38604;DHT22;24924;50.054;8.790;2023-06-10T00:31:41;18.00;99.90
38604;DHT22;24924;50.054;8.790;2023-06-10T00:34:07;18.00;99.90
38604;DHT22;24924;50.054;8.790;2023-06-10T00:36:33;17.90;99.90
38604;DHT22;24924;50.054;8.790;2023-06-10T00:38:59;17.90;99.90
38604;DHT22;24924;50.054;8.790;2023-06-10T00:41:25;17.80;99.90
38604;DHT22;24924;50.054;8.790;2023-06-10T00:43:52;17.80;99.90
38604;DHT22;24924;50.054;8.790;2023-06-10T00:46:18;17.80;99.90
38604;DHT22;24924;50.054;8.790;2023-06-10T00:48:45;17.70;99.90
38604;DHT22;24924;50.054;8.790;2023-06-10T00:51:11;17.70;99.90
38604;DHT22;24924;50.054;8.790;2023-06-10T00:53:40;17.70;99.90
38604;DHT22;24924;50.054;8.790;2023-06-10T00:56:07;17.60;99.90
38604;DHT22;24924;50.054;8.790;2023-06-10T00:58:35;17.50;99.90
38604;DHT22;24924;50.054;8.790;2023-06-10T01:01:01;17.40;99.90
38604;DHT22;24924;50.054;8.790;2023-06-10T01:03:27;17.50;99.90
38604;DHT22;24924;50.054;8.790;2023-06-10T01:06:21;17.50;99.90
38604;DHT22;24924;50.054;8.790;2023-06-10T01:09:13;17.60;99.90
38604;DHT22;24924;50.054;8.790;2023-06-10T01:12:05;17.50;99.90
38604;DHT22;24924;50.054;8.790;2023-06-10T01:14:38;16.90;99.90
38604;DHT22;24924;50.054;8.790;2023-06-10T01:17:11;17.30;99.90
38604;DHT22;24924;50.054;8.790;2023-06-10T01:19:37;17.20;99.90
38604;DHT22;24924;50.054;8.790;2023-06-10T01:22:03;17.30;99.90
38604;DHT22;24924;50.054;8.790;2023-06-10T01:24:29;17.30;99.90
38604;DHT22;24924;50.054;8.790;2023-06-10T01:27:01;17.30;99.90
38604;DHT22;24924;50.054;8.790;2023-06-10T01:29:39;17.20;99.90
38604;DHT22;24924;50.054;8.790;2023-06-10T01:32:34;17.10;99.90
38604;DHT22;24924;50.054;8.790;2023-06-10T01:35:03;17.10;99.90
38604;DHT22;24924;50.054;8.790;2023-06-10T01:37:31;17.10;99.90
38604;DHT22;24924;50.054;8.790;2023-06-10T01:39:58;17.00;99.90
38604;DHT22;24924;50.054;8.790;2023-06-10T01:42:25;17.10;99.90
38604;DHT22;24924;50.054;8.790;2023-06-10T01:44:51;17.10;99.90
38604;DHT22;24924;50.054;8.790;2023-06-10T01:47:17;17.00;99.90
38604;DHT22;24924;50.054;8.790;2023-06-10T01:49:43;17.00;99.90
38604;DHT22;24924;50.054;8.790;2023-06-10T01:52:09;17.00;99.90
38604;DHT22;24924;50.054;8.790;2023-06-10T01:54:35;16.90;99.90
38604;DHT22;24924;50.054;8.790;2023-06-10T01:57:01;16.90;99.90
38604;DHT22;24924;50.054;8.790;2023-06-10T01:59:27;16.90;99.90
38604;DHT22;24924;50.054;8.790;2023-06-10T02:01:52;16.90;99.90
38604;DHT22;24924;50.054;8.790;2023-06-10T02:04:18;16.90;99.90
38604;DHT22;24924;50.054;8.790;2023-06-10T02:06:44;16.90;99.90
38604;DHT22;24924;50.054;8.790;2023-06-10T02:09:10;17.00;99.90
38604;DHT22;24924;50.054;8.790;2023-06-10T02:11:36;17.10;99.90
38604;DHT22;24924;50.054;8.790;2023-06-10T02:14:02;17.10;99.90
38604;DHT22;24924;50.054;8.790;2023-06-10T02:16:28;17.00;99.90
38604;DHT22;24924;50.054;8.790;2023-06-10T02:18:54;17.10;99.90
38604;DHT22;24924;50.054;8.790;2023-06-10T02:21:20;17.10;99.90
38604;DHT22;24924;50.054;8.790;2023-06-10T02:23:46;17.10;99.90
38604;DHT22;24924;50.054;8.790;2023-06-10T02:26:12;17.20;99.90
38604;DHT22;24924;50.054;8.790;2023-06-10T02:28:37;17.10;99.90
38604;DHT22;24924;50.054;8.790;2023-06-10T02:31:03;17.10;99.90
38604;DHT22;24924;50.054;8.790;2023-06-10T02:33:29;17.20;99.90
38604;DHT22;24924;50.054;8.790;2023-06-10T02:35:55;17.10;99.90
38604;DHT22;24924;50.054;8.790;2023-06-10T02:38:22;17.10;99.90
38604;DHT22;24924;50.054;8.790;2023-06-10T02:40:48;17.10;99.90
38604;DHT22;24924;50.054;8.790;2023-06-10T02:43:14;17.00;99.90
38604;DHT22;24924;50.054;8.790;2023-06-10T02:45:41;16.90;99.90
38604;DHT22;24924;50.054;8.790;2023-06-10T02:48:07;16.80;99.90
38604;DHT22;24924;50.054;8.790;2023-06-10T02:50:33;16.80;99.90
38604;DHT22;24924;50.054;8.790;2023-06-10T02:53:14;16.70;99.90
38604;DHT22;24924;50.054;8.790;2023-06-10T02:55:44;16.70;99.90
38604;DHT22;24924;50.054;8.790;2023-06-10T02:58:13;16.70;99.90
38604;DHT22;24924;50.054;8.790;2023-06-10T03:00:39;16.70;99.90
38604;DHT22;24924;50.054;8.790;2023-06-10T03:03:07;16.60;99.90
38604;DHT22;24924;50.054;8.790;2023-06-10T03:05:43;16.60;99.90
38604;DHT22;24924;50.054;8.790;2023-06-10T03:08:09;16.60;99.90
38604;DHT22;24924;50.054;8.790;2023-06-10T03:10:38;16.60;99.90
38604;DHT22;24924;50.054;8.790;2023-06-10T03:13:04;16.50;99.90
38604;DHT22;24924;50.054;8.790;2023-06-10T03:15:30;16.50;99.90
38604;DHT22;24924;50.054;8.790;2023-06-10T03:18:00;16.50;99.90
38604;DHT22;24924;50.054;8.790;2023-06-10T03:20:26;16.50;99.90
38604;DHT22;24924;50.054;8.790;2023-06-10T03:22:53;16.50;99.90
38604;DHT22;24924;50.054;8.790;2023-06-10T03:25:19;16.40;99.90
38604;DHT22;24924;50.054;8.790;2023-06-10T03:27:49;16.40;99.90
38604;DHT22;24924;50.054;8.790;2023-06-10T03:30:18;16.40;99.90
38604;DHT22;24924;50.054;8.790;2023-06-10T03:32:45;16.40;99.90
38604;DHT22;24924;50.054;8.790;2023-06-10T03:35:14;16.30;99.90
38604;DHT22;24924;50.054;8.790;2023-06-10T03:37:41;16.30;99.90
38604;DHT22;24924;50.054;8.790;2023-06-10T03:40:07;16.20;99.90
38604;DHT22;24924;50.054;8.790;2023-06-10T03:42:36;16.20;99.90
38604;DHT22;24924;50.054;8.790;2023-06-10T03:45:02;16.20;99.90
38604;DHT22;24924;50.054;8.790;2023-06-10T03:47:34;16.20;99.90
38604;DHT22;24924;50.054;8.790;2023-06-10T03:50:06;16.20;99.90
38604;DHT22;24924;50.054;8.790;2023-06-10T03:52:35;16.20;99.90
38604;DHT22;24924;50.054;8.790;2023-06-10T03:55:01;16.20;99.90
38604;DHT22;24924;50.054;8.790;2023-06-10T03:57:27;16.30;99.90
38604;DHT22;24924;50.054;8.790;2023-06-10T03:59:54;16.20;99.90
38604;DHT22;24924;50.054;8.790;2023-06-10T04:02:22;16.30;99.90
38604;DHT22;24924;50.054;8.790;2023-06-10T04:04:49;16.30;99.90
38604;DHT22;24924;50.054;8.790;2023-06-10T04:07:14;16.40;99.90
38604;DHT22;24924;50.054;8.790;2023-06-10T04:09:40;16.40;99.90
38604;DHT22;24924;50.054;8.790;2023-06-10T04:12:07;16.50;99.90
38604;DHT22;24924;50.054;8.790;2023-06-10T04:14:35;16.60;99.90
38604;DHT22;24924;50.054;8.790;2023-06-10T04:17:05;16.70;99.90
38604;DHT22;24924;50.054;8.790;2023-06-10T04:19:35;16.80;99.90
38604;DHT22;24924;50.054;8.790;2023-06-10T04:22:02;16.90;99.90
38604;DHT22;24924;50.054;8.790;2023-06-10T04:24:31;16.90;99.90
38604;DHT22;24924;50.054;8.790;2023-06-10T04:26:56;16.90;99.90
38604;DHT22;24924;50.054;8.790;2023-06-10T04:29:22;17.00;99.90
38604;DHT22;24924;50.054;8.790;2023-06-10T04:31:48;17.10;99.90
38604;DHT22;24924;50.054;8.790;2023-06-10T04:34:14;17.10;99.90
38604;DHT22;24924;50.054;8.790;2023-06-10T04:36:40;17.10;99.90
38604;DHT22;24924;50.054;8.790;2023-06-10T04:39:06;17.10;99.90
38604;DHT22;24924;50.054;8.790;2023-06-10T04:41:34;17.20;99.90
38604;DHT22;24924;50.054;8.790;2023-06-10T04:43:59;17.30;99.90
38604;DHT22;24924;50.054;8.790;2023-06-10T04:46:25;17.20;99.90
38604;DHT22;24924;50.054;8.790;2023-06-10T04:48:51;17.30;99.90
38604;DHT22;24924;50.054;8.790;2023-06-10T04:51:18;17.30;99.90
38604;DHT22;24924;50.054;8.790;2023-06-10T04:53:44;17.40;99.90
38604;DHT22;24924;50.054;8.790;2023-06-10T04:56:10;17.50;99.90
38604;DHT22;24924;50.054;8.790;2023-06-10T04:58:36;17.60;99.90
38604;DHT22;24924;50.054;8.790;2023-06-10T05:01:02;17.80;99.90
38604;DHT22;24924;50.054;8.790;2023-06-10T05:03:28;17.90;99.90
38604;DHT22;24924;50.054;8.790;2023-06-10T05:05:54;18.10;99.90
38604;DHT22;24924;50.054;8.790;2023-06-10T05:08:20;18.20;99.90
38604;DHT22;24924;50.054;8.790;2023-06-10T05:10:46;18.30;99.90
38604;DHT22;24924;50.054;8.790;2023-06-10T05:13:11;18.30;99.90
38604;DHT22;24924;50.054;8.790;2023-06-10T05:15:37;18.30;99.90
38604;DHT22;24924;50.054;8.790;2023-06-10T05:18:03;18.40;99.90
38604;DHT22;24924;50.054;8.790;2023-06-10T05:20:28;18.60;99.90
38604;DHT22;24924;50.054;8.790;2023-06-10T05:22:54;18.60;99.90
38604;DHT22;24924;50.054;8.790;2023-06-10T05:25:20;18.60;99.90
38604;DHT22;24924;50.054;8.790;2023-06-10T05:27:46;18.90;99.90
38604;DHT22;24924;50.054;8.790;2023-06-10T05:30:12;18.90;99.90
38604;DHT22;24924;50.054;8.790;2023-06-10T05:32:38;19.00;99.90
38604;DHT22;24924;50.054;8.790;2023-06-10T05:35:04;19.00;99.90
38604;DHT22;24924;50.054;8.790;2023-06-10T05:37:30;19.20;99.90
38604;DHT22;24924;50.054;8.790;2023-06-10T05:39:56;19.30;99.90
38604;DHT22;24924;50.054;8.790;2023-06-10T05:42:21;19.40;99.90
38604;DHT22;24924;50.054;8.790;2023-06-10T05:44:47;19.40;99.90
38604;DHT22;24924;50.054;8.790;2023-06-10T05:47:13;19.60;99.90
38604;DHT22;24924;50.054;8.790;2023-06-10T05:49:39;19.60;99.90
38604;DHT22;24924;50.054;8.790;2023-06-10T05:52:05;19.70;99.90
38604;DHT22;24924;50.054;8.790;2023-06-10T05:54:30;19.80;99.90
38604;DHT22;24924;50.054;8.790;2023-06-10T05:56:56;20.00;99.90
38604;DHT22;24924;50.054;8.790;2023-06-10T05:59:22;20.10;99.90
38604;DHT22;24924;50.054;8.790;2023-06-10T06:01:49;20.10;99.90
38604;DHT22;24924;50.054;8.790;2023-06-10T06:04:16;20.20;99.90
38604;DHT22;24924;50.054;8.790;2023-06-10T06:06:42;20.40;99.90
38604;DHT22;24924;50.054;8.790;2023-06-10T06:09:07;20.50;99.90
38604;DHT22;24924;50.054;8.790;2023-06-10T06:11:34;20.50;99.90
38604;DHT22;24924;50.054;8.790;2023-06-10T06:14:00;20.60;99.90
38604;DHT22;24924;50.054;8.790;2023-06-10T06:16:26;20.60;99.90
38604;DHT22;24924;50.054;8.790;2023-06-10T06:18:52;20.70;99.90
38604;DHT22;24924;50.054;8.790;2023-06-10T06:21:17;20.90;99.90
38604;DHT22;24924;50.054;8.790;2023-06-10T06:23:43;21.10;99.90
38604;DHT22;24924;50.054;8.790;2023-06-10T06:26:08;21.10;99.90
38604;DHT22;24924;50.054;8.790;2023-06-10T06:28:35;21.20;99.90
38604;DHT22;24924;50.054;8.790;2023-06-10T06:31:01;21.40;99.90
38604;DHT22;24924;50.054;8.790;2023-06-10T06:33:26;21.50;99.90
38604;DHT22;24924;50.054;8.790;2023-06-10T06:35:52;21.50;99.90
38604;DHT22;24924;50.054;8.790;2023-06-10T06:38:18;21.50;99.90
38604;DHT22;24924;50.054;8.790;2023-06-10T06:40:43;21.70;99.90
38604;DHT22;24924;50.054;8.790;2023-06-10T06:43:09;21.90;99.90
38604;DHT22;24924;50.054;8.790;2023-06-10T06:45:48;22.00;99.90
38604;DHT22;24924;50.054;8.790;2023-06-10T06:48:14;22.10;99.90
38604;DHT22;24924;50.054;8.790;2023-06-10T06:50:40;22.10;99.90
38604;DHT22;24924;50.054;8.790;2023-06-10T06:53:07;22.10;99.90
38604;DHT22;24924;50.054;8.790;2023-06-10T06:55:33;22.30;99.90
38604;DHT22;24924;50.054;8.790;2023-06-10T06:57:58;22.30;99.90
38604;DHT22;24924;50.054;8.790;2023-06-10T07:00:28;22.30;99.90
38604;DHT22;24924;50.054;8.790;2023-06-10T07:02:53;22.50;99.90
38604;DHT22;24924;50.054;8.790;2023-06-10T07:05:19;22.60;99.90
38604;DHT22;24924;50.054;8.790;2023-06-10T07:07:45;23.20;99.90
38604;DHT22;24924;50.054;8.790;2023-06-10T07:10:11;22.90;99.90
38604;DHT22;24924;50.054;8.790;2023-06-10T07:12:36;22.90;99.90
38604;DHT22;24924;50.054;8.790;2023-06-10T07:15:02;22.90;99.90
38604;DHT22;24924;50.054;8.790;2023-06-10T07:17:28;23.00;99.90
38604;DHT22;24924;50.054;8.790;2023-06-10T07:19:55;23.10;99.90
38604;DHT22;24924;50.054;8.790;2023-06-10T07:22:23;23.10;99.90
38604;DHT22;24924;50.054;8.790;2023-06-10T07:24:48;23.30;99.90
38604;DHT22;24924;50.054;8.790;2023-06-10T07:27:16;23.70;99.90
38604;DHT22;24924;50.054;8.790;2023-06-10T07:29:42;23.70;99.90
38604;DHT22;24924;50.054;8.790;2023-06-10T07:32:08;23.90;99.90
38604;DHT22;24924;50.054;8.790;2023-06-10T07:34:33;23.80;99.90
38604;DHT22;24924;50.054;8.790;2023-06-10T07:36:59;24.00;99.90
38604;DHT22;24924;50.054;8.790;2023-06-10T07:39:25;24.00;99.90
38604;DHT22;24924;50.054;8.790;2023-06-10T07:41:50;24.20;99.90
38604;DHT22;24924;50.054;8.790;2023-06-10T07:44:19;24.30;99.90
38604;DHT22;24924;50.054;8.790;2023-06-10T07:46:46;24.40;99.90
38604;DHT22;24924;50.054;8.790;2023-06-10T07:49:12;24.50;99.90
38604;DHT22;24924;50.054;8.790;2023-06-10T07:51:37;24.70;99.60
38604;DHT22;24924;50.054;8.790;2023-06-10T07:54:03;24.80;99.90
38604;DHT22;24924;50.054;8.790;2023-06-10T07:56:29;24.80;99.90
38604;DHT22;24924;50.054;8.790;2023-06-10T07:58:55;24.80;99.90
38604;DHT22;24924;50.054;8.790;2023-06-10T08:01:22;24.80;99.80
38604;DHT22;24924;50.054;8.790;2023-06-10T08:03:48;24.80;99.40
38604;DHT22;24924;50.054;8.790;2023-06-10T08:06:14;24.80;99.90
38604;DHT22;24924;50.054;8.790;2023-06-10T08:08:43;24.90;99.70
38604;DHT22;24924;50.054;8.790;2023-06-10T08:11:12;25.00;99.60
38604;DHT22;24924;50.054;8.790;2023-06-10T08:13:38;25.10;99.90
38604;DHT22;24924;50.054;8.790;2023-06-10T08:16:05;25.30;99.30
38604;DHT22;24924;50.054;8.790;2023-06-10T08:18:31;25.40;98.80
38604;DHT22;24924;50.054;8.790;2023-06-10T08:20:57;25.40;98.50
38604;DHT22;24924;50.054;8.790;2023-06-10T08:23:23;25.60;99.20
38604;DHT22;24924;50.054;8.790;2023-06-10T08:25:49;25.60;98.50
38604;DHT22;24924;50.054;8.790;2023-06-10T08:28:15;25.60;98.30
38604;DHT22;24924;50.054;8.790;2023-06-10T08:30:41;25.80;98.70
38604;DHT22;24924;50.054;8.790;2023-06-10T08:33:07;25.80;98.80
38604;DHT22;24924;50.054;8.790;2023-06-10T08:35:33;26.00;98.00
38604;DHT22;24924;50.054;8.790;2023-06-10T08:37:59;26.10;98.80
38604;DHT22;24924;50.054;8.790;2023-06-10T08:40:25;26.10;98.60
38604;DHT22;24924;50.054;8.790;2023-06-10T08:43:07;26.00;99.00
38604;DHT22;24924;50.054;8.790;2023-06-10T08:45:36;26.30;98.30
38604;DHT22;24924;50.054;8.790;2023-06-10T08:48:06;26.20;97.90
38604;DHT22;24924;50.054;8.790;2023-06-10T08:50:36;26.30;97.20
38604;DHT22;24924;50.054;8.790;2023-06-10T08:53:05;26.50;97.50
38604;DHT22;24924;50.054;8.790;2023-06-10T08:55:38;26.40;97.50
38604;DHT22;24924;50.054;8.790;2023-06-10T08:58:07;26.50;97.90
38604;DHT22;24924;50.054;8.790;2023-06-10T09:00:34;26.60;97.60
38604;DHT22;24924;50.054;8.790;2023-06-10T09:03:00;26.60;97.20
38604;DHT22;24924;50.054;8.790;2023-06-10T09:05:29;27.00;97.20
38604;DHT22;24924;50.054;8.790;2023-06-10T09:07:56;27.20;96.70
38604;DHT22;24924;50.054;8.790;2023-06-10T09:10:23;27.20;96.70
38604;DHT22;24924;50.054;8.790;2023-06-10T09:12:50;27.30;97.80
38604;DHT22;24924;50.054;8.790;2023-06-10T09:15:17;27.20;96.00
38604;DHT22;24924;50.054;8.790;2023-06-10T09:17:43;27.20;96.00
38604;DHT22;24924;50.054;8.790;2023-06-10T09:20:09;27.20;96.30
38604;DHT22;24924;50.054;8.790;2023-06-10T09:22:35;27.60;97.50
38604;DHT22;24924;50.054;8.790;2023-06-10T09:25:06;27.90;96.50
38604;DHT22;24924;50.054;8.790;2023-06-10T09:27:44;27.90;96.00
38604;DHT22;24924;50.054;8.790;2023-06-10T09:30:27;28.20;96.30
38604;DHT22;24924;50.054;8.790;2023-06-10T09:32:55;28.10;96.30
38604;DHT22;24924;50.054;8.790;2023-06-10T09:35:22;28.50;95.50
38604;DHT22;24924;50.054;8.790;2023-06-10T09:37:51;28.60;95.70
38604;DHT22;24924;50.054;8.790;2023-06-10T09:40:17;28.80;95.30
38604;DHT22;24924;50.054;8.790;2023-06-10T09:42:43;28.90;94.90
38604;DHT22;24924;50.054;8.790;2023-06-10T09:45:09;28.90;95.40
38604;DHT22;24924;50.054;8.790;2023-06-10T09:47:35;28.90;94.00
38604;DHT22;24924;50.054;8.790;2023-06-10T09:50:00;28.70;94.50
38604;DHT22;24924;50.054;8.790;2023-06-10T09:52:28;28.60;94.10
38604;DHT22;24924;50.054;8.790;2023-06-10T09:55:01;28.50;94.10
38604;DHT22;24924;50.054;8.790;2023-06-10T09:57:31;28.80;94.10
38604;DHT22;24924;50.054;8.790;2023-06-10T10:00:05;28.60;93.40
38604;DHT22;24924;50.054;8.790;2023-06-10T10:02:50;28.50;93.80
38604;DHT22;24924;50.054;8.790;2023-06-10T10:05:17;28.60;93.90
38604;DHT22;24924;50.054;8.790;2023-06-10T10:07:44;28.80;93.80
38604;DHT22;24924;50.054;8.790;2023-06-10T10:10:10;28.90;93.70
38604;DHT22;24924;50.054;8.790;2023-06-10T10:12:38;28.90;92.90
38604;DHT22;24924;50.054;8.790;2023-06-10T10:15:08;28.90;93.40
38604;DHT22;24924;50.054;8.790;2023-06-10T10:17:53;28.80;93.10
38604;DHT22;24924;50.054;8.790;2023-06-10T10:20:27;29.20;92.40
38604;DHT22;24924;50.054;8.790;2023-06-10T10:22:57;29.10;90.90
38604;DHT22;24924;50.054;8.790;2023-06-10T10:25:25;29.20;92.10
38604;DHT22;24924;50.054;8.790;2023-06-10T10:27:57;29.00;91.10
38604;DHT22;24924;50.054;8.790;2023-06-10T10:30:24;28.80;90.80
38604;DHT22;24924;50.054;8.790;2023-06-10T10:35:30;29.20;91.20
38604;DHT22;24924;50.054;8.790;2023-06-10T10:37:58;29.50;90.70
38604;DHT22;24924;50.054;8.790;2023-06-10T10:40:25;29.60;90.90
38604;DHT22;24924;50.054;8.790;2023-06-10T10:42:52;29.30;90.90
38604;DHT22;24924;50.054;8.790;2023-06-10T10:45:27;29.10;91.70
38604;DHT22;24924;50.054;8.790;2023-06-10T10:47:54;29.30;91.00
38604;DHT22;24924;50.054;8.790;2023-06-10T10:50:22;29.50;90.60
38604;DHT22;24924;50.054;8.790;2023-06-10T10:52:56;29.30;90.50
38604;DHT22;24924;50.054;8.790;2023-06-10T10:55:25;29.10;90.90
38604;DHT22;24924;50.054;8.790;2023-06-10T10:58:17;29.00;91.30
38604;DHT22;24924;50.054;8.790;2023-06-10T11:00:49;28.90;90.40
38604;DHT22;24924;50.054;8.790;2023-06-10T11:03:16;28.60;90.70
38604;DHT22;24924;50.054;8.790;2023-06-10T11:05:46;28.20;91.20
38604;DHT22;24924;50.054;8.790;2023-06-10T11:08:45;28.20;91.90
38604;DHT22;24924;50.054;8.790;2023-06-10T11:11:17;28.00;91.30
38604;DHT22;24924;50.054;8.790;2023-06-10T11:14:06;28.00;90.90
38604;DHT22;24924;50.054;8.790;2023-06-10T11:16:40;28.10;91.70
38604;DHT22;24924;50.054;8.790;2023-06-10T11:19:07;28.50;89.70
38604;DHT22;24924;50.054;8.790;2023-06-10T11:24:21;29.10;90.30
38604;DHT22;24924;50.054;8.790;2023-06-10T11:26:47;29.30;88.30
38604;DHT22;24924;50.054;8.790;2023-06-10T11:29:15;29.20;88.70
38604;DHT22;24924;50.054;8.790;2023-06-10T11:31:42;29.10;88.60
38604;DHT22;24924;50.054;8.790;2023-06-10T11:34:09;28.80;88.60
38604;DHT22;24924;50.054;8.790;2023-06-10T11:36:38;28.50;88.70
38604;DHT22;24924;50.054;8.790;2023-06-10T11:39:06;28.60;89.50
38604;DHT22;24924;50.054;8.790;2023-06-10T11:41:34;28.70;90.90
38604;DHT22;24924;50.054;8.790;2023-06-10T11:44:07;28.70;89.10
38604;DHT22;24924;50.054;8.790;2023-06-10T11:46:33;28.50;89.40
38604;DHT22;24924;50.054;8.790;2023-06-10T11:49:00;28.90;90.20
38604;DHT22;24924;50.054;8.790;2023-06-10T11:51:27;29.40;89.10
38604;DHT22;24924;50.054;8.790;2023-06-10T11:53:54;29.30;88.30
38604;DHT22;24924;50.054;8.790;2023-06-10T11:56:27;29.20;90.10
38604;DHT22;24924;50.054;8.790;2023-06-10T11:58:55;29.30;88.60
38604;DHT22;24924;50.054;8.790;2023-06-10T12:01:22;29.40;86.10
38604;DHT22;24924;50.054;8.790;2023-06-10T12:04:03;29.80;86.50
38604;DHT22;24924;50.054;8.790;2023-06-10T12:06:40;29.60;82.70
38604;DHT22;24924;50.054;8.790;2023-06-10T12:09:12;29.40;84.00
38604;DHT22;24924;50.054;8.790;2023-06-10T12:11:38;29.70;80.50
38604;DHT22;24924;50.054;8.790;2023-06-10T12:14:05;30.30;82.50
38604;DHT22;24924;50.054;8.790;2023-06-10T12:16:31;30.70;83.90
38604;DHT22;24924;50.054;8.790;2023-06-10T12:19:04;31.10;82.60
38604;DHT22;24924;50.054;8.790;2023-06-10T12:21:32;30.70;80.50
38604;DHT22;24924;50.054;8.790;2023-06-10T12:24:07;30.50;81.90
38604;DHT22;24924;50.054;8.790;2023-06-10T12:26:41;29.80;82.00
38604;DHT22;24924;50.054;8.790;2023-06-10T12:29:18;29.60;83.10
38604;DHT22;24924;50.054;8.790;2023-06-10T12:31:54;29.90;83.40
38604;DHT22;24924;50.054;8.790;2023-06-10T12:34:31;30.40;84.20
38604;DHT22;24924;50.054;8.790;2023-06-10T12:36:57;30.80;83.20
38604;DHT22;24924;50.054;8.790;2023-06-10T12:39:23;31.00;81.30
38604;DHT22;24924;50.054;8.790;2023-06-10T12:41:49;30.70;81.10
38604;DHT22;24924;50.054;8.790;2023-06-10T12:44:16;30.70;80.20
38604;DHT22;24924;50.054;8.790;2023-06-10T12:46:42;30.80;79.40
38604;DHT22;24924;50.054;8.790;2023-06-10T12:49:07;31.20;78.80
38604;DHT22;24924;50.054;8.790;2023-06-10T12:51:33;31.60;81.00
38604;DHT22;24924;50.054;8.790;2023-06-10T12:54:01;31.40;79.60
38604;DHT22;24924;50.054;8.790;2023-06-10T12:56:27;31.00;77.70
38604;DHT22;24924;50.054;8.790;2023-06-10T12:58:52;30.40;78.70
38604;DHT22;24924;50.054;8.790;2023-06-10T13:01:18;30.10;78.20
38604;DHT22;24924;50.054;8.790;2023-06-10T13:03:44;30.00;80.20
38604;DHT22;24924;50.054;8.790;2023-06-10T13:06:10;30.70;81.30
38604;DHT22;24924;50.054;8.790;2023-06-10T13:08:36;29.70;78.80
38604;DHT22;24924;50.054;8.790;2023-06-10T13:11:01;29.70;77.70
38604;DHT22;24924;50.054;8.790;2023-06-10T13:13:27;29.60;78.80
38604;DHT22;24924;50.054;8.790;2023-06-10T13:15:54;29.50;79.20
38604;DHT22;24924;50.054;8.790;2023-06-10T13:18:20;29.50;78.50
38604;DHT22;24924;50.054;8.790;2023-06-10T13:20:46;29.70;80.60
38604;DHT22;24924;50.054;8.790;2023-06-10T13:23:12;30.30;78.40
38604;DHT22;24924;50.054;8.790;2023-06-10T13:25:38;30.50;77.90
38604;DHT22;24924;50.054;8.790;2023-06-10T13:28:03;31.20;78.70
38604;DHT22;24924;50.054;8.790;2023-06-10T13:30:29;31.60;78.10
38604;DHT22;24924;50.054;8.790;2023-06-10T13:32:55;31.80;78.40
38604;DHT22;24924;50.054;8.790;2023-06-10T13:35:21;31.70;75.80
38604;DHT22;24924;50.054;8.790;2023-06-10T13:37:47;31.50;76.00
38604;DHT22;24924;50.054;8.790;2023-06-10T13:40:12;31.50;76.70
38604;DHT22;24924;50.054;8.790;2023-06-10T13:42:38;31.90;77.90
38604;DHT22;24924;50.054;8.790;2023-06-10T13:45:04;32.00;73.90
38604;DHT22;24924;50.054;8.790;2023-06-10T13:47:31;31.90;73.80
38604;DHT22;24924;50.054;8.790;2023-06-10T13:49:56;32.00;75.60
38604;DHT22;24924;50.054;8.790;2023-06-10T13:52:22;32.00;75.50
38604;DHT22;24924;50.054;8.790;2023-06-10T13:54:48;32.60;75.50
38604;DHT22;24924;50.054;8.790;2023-06-10T13:57:14;33.20;75.80
38604;DHT22;24924;50.054;8.790;2023-06-10T13:59:39;32.90;74.80
38604;DHT22;24924;50.054;8.790;2023-06-10T14:02:05;32.00;74.80
38604;DHT22;24924;50.054;8.790;2023-06-10T14:04:31;31.50;75.20
38604;DHT22;24924;50.054;8.790;2023-06-10T14:06:58;31.80;76.50
38604;DHT22;24924;50.054;8.790;2023-06-10T14:09:23;31.90;74.80
38604;DHT22;24924;50.054;8.790;2023-06-10T14:11:49;31.90;75.90
38604;DHT22;24924;50.054;8.790;2023-06-10T14:14:15;32.60;75.80
38604;DHT22;24924;50.054;8.790;2023-06-10T14:16:40;32.40;73.70
38604;DHT22;24924;50.054;8.790;2023-06-10T14:19:06;32.00;74.70
38604;DHT22;24924;50.054;8.790;2023-06-10T14:21:32;31.40;74.90
38604;DHT22;24924;50.054;8.790;2023-06-10T14:23:57;31.00;75.00
38604;DHT22;24924;50.054;8.790;2023-06-10T14:26:23;30.30;75.10
38604;DHT22;24924;50.054;8.790;2023-06-10T14:28:49;29.60;77.40
38604;DHT22;24924;50.054;8.790;2023-06-10T14:31:16;29.90;77.70
38604;DHT22;24924;50.054;8.790;2023-06-10T14:33:41;29.70;77.40
38604;DHT22;24924;50.054;8.790;2023-06-10T14:36:09;29.40;77.50
38604;DHT22;24924;50.054;8.790;2023-06-10T14:38:35;29.20;77.90
38604;DHT22;24924;50.054;8.790;2023-06-10T14:41:00;29.20;80.20
38604;DHT22;24924;50.054;8.790;2023-06-10T14:43:26;29.10;80.20
38604;DHT22;24924;50.054;8.790;2023-06-10T14:45:52;29.10;80.60
38604;DHT22;24924;50.054;8.790;2023-06-10T14:48:18;28.90;79.90
38604;DHT22;24924;50.054;8.790;2023-06-10T14:50:43;28.90;80.90
38604;DHT22;24924;50.054;8.790;2023-06-10T14:53:12;29.00;79.80
38604;DHT22;24924;50.054;8.790;2023-06-10T14:55:37;29.60;79.70
38604;DHT22;24924;50.054;8.790;2023-06-10T14:58:03;30.30;78.80
38604;DHT22;24924;50.054;8.790;2023-06-10T15:00:28;30.80;77.30
38604;DHT22;24924;50.054;8.790;2023-06-10T15:02:54;31.50;77.80
38604;DHT22;24924;50.054;8.790;2023-06-10T15:05:21;32.20;77.00
38604;DHT22;24924;50.054;8.790;2023-06-10T15:07:47;32.40;74.90
38604;DHT22;24924;50.054;8.790;2023-06-10T15:10:12;32.70;74.60
38604;DHT22;24924;50.054;8.790;2023-06-10T15:12:38;33.10;74.10
38604;DHT22;24924;50.054;8.790;2023-06-10T15:15:04;33.10;71.90
38604;DHT22;24924;50.054;8.790;2023-06-10T15:17:30;33.60;74.50
38604;DHT22;24924;50.054;8.790;2023-06-10T15:19:56;34.40;71.10
38604;DHT22;24924;50.054;8.790;2023-06-10T15:22:22;34.90;69.90
38604;DHT22;24924;50.054;8.790;2023-06-10T15:24:47;35.40;68.10
38604;DHT22;24924;50.054;8.790;2023-06-10T15:27:13;35.60;68.00
38604;DHT22;24924;50.054;8.790;2023-06-10T15:29:39;35.60;68.10
38604;DHT22;24924;50.054;8.790;2023-06-10T15:32:05;35.30;66.90
38604;DHT22;24924;50.054;8.790;2023-06-10T15:34:32;34.90;68.20
38604;DHT22;24924;50.054;8.790;2023-06-10T15:36:58;35.80;67.80
38604;DHT22;24924;50.054;8.790;2023-06-10T15:39:24;35.30;68.20